Terminal Aerodrome Forecast
Issued by NWS

Current Version | Previous Version | Text Only | Print | Product List | Glossary Off
Versions: 1 2 3 4 5 6 7 8 9 10 11 12 13 14 15 16 17 18

675
FTUS41 KPBZ 171129
TAFHLG
TAF
KHLG 171129Z 1712/1812 12005KT P6SM BKN060
     FM171700 20007KT P6SM SCT110
     FM180400 22007KT P6SM FEW200 WS020/25035KT
     FM180900 22008KT P6SM FEW200=

USA.gov is the U.S. government's official web portal to all federal, state and local government web resources and services.